Atlanta, Missouri
Current Conditions -  °F | °C
As of 11:55 AM on Thursday 29 Jan 2015 (Local Time) from KIRK Reporting Station
Overcast Overcast  
Wind Chill: 27°   Ceiling: 2000
Heat Index: 37°   Visibility: 9mi
Dew Point: 30°   Wind: 18mph
Humidity: 76%   Direction: 310°NW
Pressure: 30.23"   Gusts: 25mph
Location:  39.9°N, 92.48°W
Report Text: KIRK 291755Z AUTO 31016G22KT 9SM OVC020 03/M01 A3023 RMK AO2 SNB45E54 SLP245 P0000 60000 T00281011 10028 20022 51027
Loading
Personal Weather Stations






























Interactive Weather Map New forecast layout! Learn more

10-Day Weather Forecast

Advertisements
Track Severe Weather on mobile